sensor_id;sensor_type;location;lat;lon;timestamp;P1;durP1;ratioP1;P2;durP2;ratioP2
60169;SDS011;46042;49.444;6.862;2023-06-22T00:01:20;19.45;;;8.90;;
60169;SDS011;46042;49.444;6.862;2023-06-22T00:03:51;13.98;;;8.15;;
60169;SDS011;46042;49.444;6.862;2023-06-22T00:06:17;15.10;;;8.93;;
60169;SDS011;46042;49.444;6.862;2023-06-22T00:08:44;13.27;;;8.50;;
60169;SDS011;46042;49.444;6.862;2023-06-22T00:11:11;20.92;;;9.13;;
60169;SDS011;46042;49.444;6.862;2023-06-22T00:13:38;15.55;;;9.82;;
60169;SDS011;46042;49.444;6.862;2023-06-22T00:16:05;15.77;;;9.00;;
60169;SDS011;46042;49.444;6.862;2023-06-22T00:18:32;17.48;;;8.93;;
60169;SDS011;46042;49.444;6.862;2023-06-22T00:20:59;18.20;;;7.68;;
60169;SDS011;46042;49.444;6.862;2023-06-22T00:23:26;15.60;;;8.25;;
60169;SDS011;46042;49.444;6.862;2023-06-22T00:25:53;23.42;;;8.80;;
60169;SDS011;46042;49.444;6.862;2023-06-22T00:28:20;16.50;;;10.20;;
60169;SDS011;46042;49.444;6.862;2023-06-22T00:30:48;20.20;;;10.27;;
60169;SDS011;46042;49.444;6.862;2023-06-22T00:33:16;16.25;;;9.60;;
60169;SDS011;46042;49.444;6.862;2023-06-22T00:35:43;19.92;;;10.75;;
60169;SDS011;46042;49.444;6.862;2023-06-22T00:38:10;14.30;;;8.48;;
60169;SDS011;46042;49.444;6.862;2023-06-22T00:40:37;12.20;;;8.88;;
60169;SDS011;46042;49.444;6.862;2023-06-22T00:43:06;16.08;;;8.93;;
60169;SDS011;46042;49.444;6.862;2023-06-22T00:45:33;18.92;;;9.77;;
60169;SDS011;46042;49.444;6.862;2023-06-22T00:48:00;14.35;;;9.23;;
60169;SDS011;46042;49.444;6.862;2023-06-22T00:50:28;17.88;;;9.57;;
60169;SDS011;46042;49.444;6.862;2023-06-22T00:53:06;14.00;;;8.85;;
60169;SDS011;46042;49.444;6.862;2023-06-22T00:55:35;15.38;;;9.00;;
60169;SDS011;46042;49.444;6.862;2023-06-22T00:58:04;18.23;;;10.00;;
60169;SDS011;46042;49.444;6.862;2023-06-22T01:00:34;22.73;;;9.75;;
60169;SDS011;46042;49.444;6.862;2023-06-22T01:03:01;16.42;;;9.75;;
60169;SDS011;46042;49.444;6.862;2023-06-22T01:05:28;16.23;;;10.15;;
60169;SDS011;46042;49.444;6.862;2023-06-22T01:10:43;14.40;;;8.43;;
60169;SDS011;46042;49.444;6.862;2023-06-22T01:13:21;16.55;;;9.70;;
60169;SDS011;46042;49.444;6.862;2023-06-22T01:16:05;22.38;;;9.55;;
60169;SDS011;46042;49.444;6.862;2023-06-22T01:18:41;18.75;;;9.80;;
60169;SDS011;46042;49.444;6.862;2023-06-22T01:21:14;18.42;;;10.27;;
60169;SDS011;46042;49.444;6.862;2023-06-22T01:29:31;18.48;;;11.07;;
60169;SDS011;46042;49.444;6.862;2023-06-22T01:32:00;16.90;;;11.15;;
60169;SDS011;46042;49.444;6.862;2023-06-22T01:34:32;15.18;;;10.23;;
60169;SDS011;46042;49.444;6.862;2023-06-22T01:37:01;18.70;;;10.75;;
60169;SDS011;46042;49.444;6.862;2023-06-22T01:39:28;25.55;;;11.07;;
60169;SDS011;46042;49.444;6.862;2023-06-22T01:41:56;20.83;;;11.75;;
60169;SDS011;46042;49.444;6.862;2023-06-22T01:44:23;23.35;;;11.00;;
60169;SDS011;46042;49.444;6.862;2023-06-22T01:46:52;17.40;;;10.55;;
60169;SDS011;46042;49.444;6.862;2023-06-22T01:49:19;19.88;;;11.23;;
60169;SDS011;46042;49.444;6.862;2023-06-22T01:51:46;24.80;;;10.25;;
60169;SDS011;46042;49.444;6.862;2023-06-22T01:54:13;14.63;;;10.30;;
60169;SDS011;46042;49.444;6.862;2023-06-22T01:56:40;16.52;;;10.85;;
60169;SDS011;46042;49.444;6.862;2023-06-22T01:59:25;27.45;;;11.35;;
60169;SDS011;46042;49.444;6.862;2023-06-22T02:02:01;18.25;;;10.57;;
60169;SDS011;46042;49.444;6.862;2023-06-22T02:04:36;25.63;;;11.32;;
60169;SDS011;46042;49.444;6.862;2023-06-22T02:07:11;16.90;;;10.73;;
60169;SDS011;46042;49.444;6.862;2023-06-22T02:09:44;20.15;;;11.00;;
60169;SDS011;46042;49.444;6.862;2023-06-22T02:12:12;20.98;;;11.50;;
60169;SDS011;46042;49.444;6.862;2023-06-22T02:14:44;18.52;;;11.30;;
60169;SDS011;46042;49.444;6.862;2023-06-22T02:17:14;19.42;;;10.35;;
60169;SDS011;46042;49.444;6.862;2023-06-22T02:19:40;19.20;;;10.73;;
60169;SDS011;46042;49.444;6.862;2023-06-22T02:22:07;18.20;;;11.02;;
60169;SDS011;46042;49.444;6.862;2023-06-22T02:24:34;22.02;;;10.88;;
60169;SDS011;46042;49.444;6.862;2023-06-22T02:27:01;19.30;;;10.68;;
60169;SDS011;46042;49.444;6.862;2023-06-22T02:29:29;21.50;;;11.50;;
60169;SDS011;46042;49.444;6.862;2023-06-22T02:31:56;30.17;;;13.70;;
60169;SDS011;46042;49.444;6.862;2023-06-22T02:34:23;18.10;;;12.20;;
60169;SDS011;46042;49.444;6.862;2023-06-22T02:36:50;18.52;;;10.90;;
60169;SDS011;46042;49.444;6.862;2023-06-22T02:39:21;21.75;;;11.40;;
60169;SDS011;46042;49.444;6.862;2023-06-22T02:41:52;23.08;;;12.40;;
60169;SDS011;46042;49.444;6.862;2023-06-22T02:46:47;19.75;;;11.30;;
60169;SDS011;46042;49.444;6.862;2023-06-22T02:49:14;21.98;;;15.27;;
60169;SDS011;46042;49.444;6.862;2023-06-22T02:51:47;22.55;;;13.77;;
60169;SDS011;46042;49.444;6.862;2023-06-22T02:54:14;31.58;;;15.07;;
60169;SDS011;46042;49.444;6.862;2023-06-22T02:56:41;24.55;;;12.73;;
60169;SDS011;46042;49.444;6.862;2023-06-22T02:59:10;20.85;;;12.88;;
60169;SDS011;46042;49.444;6.862;2023-06-22T03:01:37;18.95;;;11.68;;
60169;SDS011;46042;49.444;6.862;2023-06-22T03:04:06;19.20;;;12.88;;
60169;SDS011;46042;49.444;6.862;2023-06-22T03:06:34;22.25;;;12.82;;
60169;SDS011;46042;49.444;6.862;2023-06-22T03:09:02;26.30;;;13.95;;
60169;SDS011;46042;49.444;6.862;2023-06-22T03:11:32;27.38;;;13.18;;
60169;SDS011;46042;49.444;6.862;2023-06-22T03:13:59;19.30;;;12.93;;
60169;SDS011;46042;49.444;6.862;2023-06-22T03:16:27;20.50;;;12.60;;
60169;SDS011;46042;49.444;6.862;2023-06-22T03:18:54;19.08;;;11.35;;
60169;SDS011;46042;49.444;6.862;2023-06-22T03:21:21;21.13;;;12.65;;
60169;SDS011;46042;49.444;6.862;2023-06-22T03:23:49;24.10;;;12.98;;
60169;SDS011;46042;49.444;6.862;2023-06-22T03:26:19;20.13;;;11.75;;
60169;SDS011;46042;49.444;6.862;2023-06-22T03:28:46;21.73;;;12.63;;
60169;SDS011;46042;49.444;6.862;2023-06-22T03:31:13;19.00;;;12.23;;
60169;SDS011;46042;49.444;6.862;2023-06-22T03:33:40;20.58;;;12.73;;
60169;SDS011;46042;49.444;6.862;2023-06-22T03:36:07;22.40;;;11.85;;
60169;SDS011;46042;49.444;6.862;2023-06-22T03:38:34;20.02;;;12.00;;
60169;SDS011;46042;49.444;6.862;2023-06-22T03:41:01;21.17;;;11.73;;
60169;SDS011;46042;49.444;6.862;2023-06-22T03:43:28;21.98;;;13.38;;
60169;SDS011;46042;49.444;6.862;2023-06-22T03:45:54;26.92;;;12.68;;
60169;SDS011;46042;49.444;6.862;2023-06-22T03:48:21;24.15;;;13.45;;
60169;SDS011;46042;49.444;6.862;2023-06-22T03:50:48;20.80;;;13.65;;
60169;SDS011;46042;49.444;6.862;2023-06-22T03:53:15;27.02;;;14.32;;
60169;SDS011;46042;49.444;6.862;2023-06-22T03:55:48;24.30;;;15.88;;
60169;SDS011;46042;49.444;6.862;2023-06-22T03:58:17;24.35;;;13.98;;
60169;SDS011;46042;49.444;6.862;2023-06-22T04:00:52;32.35;;;14.77;;
60169;SDS011;46042;49.444;6.862;2023-06-22T04:03:19;27.95;;;14.85;;
60169;SDS011;46042;49.444;6.862;2023-06-22T04:05:46;37.20;;;22.27;;
60169;SDS011;46042;49.444;6.862;2023-06-22T04:08:13;29.50;;;18.38;;
60169;SDS011;46042;49.444;6.862;2023-06-22T04:10:40;40.72;;;23.30;;
60169;SDS011;46042;49.444;6.862;2023-06-22T04:13:07;34.13;;;16.58;;
60169;SDS011;46042;49.444;6.862;2023-06-22T04:15:37;33.80;;;20.52;;
60169;SDS011;46042;49.444;6.862;2023-06-22T04:18:03;37.78;;;20.30;;
60169;SDS011;46042;49.444;6.862;2023-06-22T04:20:31;36.70;;;21.95;;
60169;SDS011;46042;49.444;6.862;2023-06-22T04:22:59;31.73;;;19.05;;
60169;SDS011;46042;49.444;6.862;2023-06-22T04:25:25;37.20;;;23.45;;
60169;SDS011;46042;49.444;6.862;2023-06-22T04:27:52;49.60;;;21.88;;
60169;SDS011;46042;49.444;6.862;2023-06-22T04:30:19;31.98;;;19.33;;
60169;SDS011;46042;49.444;6.862;2023-06-22T04:32:46;39.92;;;20.70;;
60169;SDS011;46042;49.444;6.862;2023-06-22T04:35:24;43.42;;;19.90;;
60169;SDS011;46042;49.444;6.862;2023-06-22T04:37:52;26.55;;;17.38;;
60169;SDS011;46042;49.444;6.862;2023-06-22T04:40:22;32.42;;;18.25;;
60169;SDS011;46042;49.444;6.862;2023-06-22T04:42:49;26.75;;;14.65;;
60169;SDS011;46042;49.444;6.862;2023-06-22T04:45:20;25.70;;;14.38;;
60169;SDS011;46042;49.444;6.862;2023-06-22T04:47:47;25.60;;;13.25;;
60169;SDS011;46042;49.444;6.862;2023-06-22T04:50:14;23.10;;;14.27;;
60169;SDS011;46042;49.444;6.862;2023-06-22T04:52:41;25.08;;;14.45;;
60169;SDS011;46042;49.444;6.862;2023-06-22T04:55:08;27.38;;;13.50;;
60169;SDS011;46042;49.444;6.862;2023-06-22T04:57:35;23.95;;;14.23;;
60169;SDS011;46042;49.444;6.862;2023-06-22T05:00:02;24.23;;;14.05;;
60169;SDS011;46042;49.444;6.862;2023-06-22T05:02:39;27.67;;;13.10;;
60169;SDS011;46042;49.444;6.862;2023-06-22T05:05:06;28.80;;;13.38;;
60169;SDS011;46042;49.444;6.862;2023-06-22T05:07:34;27.63;;;15.38;;
60169;SDS011;46042;49.444;6.862;2023-06-22T05:10:01;25.40;;;14.65;;
60169;SDS011;46042;49.444;6.862;2023-06-22T05:12:31;29.38;;;15.20;;
60169;SDS011;46042;49.444;6.862;2023-06-22T05:14:58;22.98;;;14.00;;
60169;SDS011;46042;49.444;6.862;2023-06-22T05:17:25;28.67;;;13.25;;
60169;SDS011;46042;49.444;6.862;2023-06-22T05:19:52;29.02;;;16.65;;
60169;SDS011;46042;49.444;6.862;2023-06-22T05:22:19;29.05;;;15.20;;
60169;SDS011;46042;49.444;6.862;2023-06-22T05:24:45;33.22;;;16.15;;
60169;SDS011;46042;49.444;6.862;2023-06-22T05:27:13;35.53;;;16.75;;
60169;SDS011;46042;49.444;6.862;2023-06-22T05:29:40;29.60;;;16.40;;
60169;SDS011;46042;49.444;6.862;2023-06-22T05:32:09;33.28;;;17.27;;
60169;SDS011;46042;49.444;6.862;2023-06-22T05:34:35;31.60;;;16.48;;
60169;SDS011;46042;49.444;6.862;2023-06-22T05:37:05;27.98;;;13.93;;
60169;SDS011;46042;49.444;6.862;2023-06-22T05:39:32;27.70;;;14.70;;
60169;SDS011;46042;49.444;6.862;2023-06-22T05:41:59;33.65;;;16.10;;
60169;SDS011;46042;49.444;6.862;2023-06-22T05:44:25;31.38;;;13.55;;
60169;SDS011;46042;49.444;6.862;2023-06-22T05:46:52;25.67;;;13.60;;
60169;SDS011;46042;49.444;6.862;2023-06-22T05:49:19;28.27;;;13.63;;
60169;SDS011;46042;49.444;6.862;2023-06-22T05:51:48;23.77;;;13.77;;
60169;SDS011;46042;49.444;6.862;2023-06-22T05:54:14;26.98;;;14.80;;
60169;SDS011;46042;49.444;6.862;2023-06-22T05:56:44;25.48;;;13.80;;
60169;SDS011;46042;49.444;6.862;2023-06-22T05:59:11;26.13;;;14.63;;
60169;SDS011;46042;49.444;6.862;2023-06-22T06:01:38;34.55;;;14.57;;
60169;SDS011;46042;49.444;6.862;2023-06-22T06:04:06;22.63;;;14.57;;
60169;SDS011;46042;49.444;6.862;2023-06-22T06:06:39;25.50;;;13.90;;
60169;SDS011;46042;49.444;6.862;2023-06-22T06:09:05;25.20;;;13.88;;
60169;SDS011;46042;49.444;6.862;2023-06-22T06:11:33;26.80;;;13.32;;
60169;SDS011;46042;49.444;6.862;2023-06-22T06:14:00;21.48;;;13.30;;
60169;SDS011;46042;49.444;6.862;2023-06-22T06:16:27;27.92;;;13.70;;
60169;SDS011;46042;49.444;6.862;2023-06-22T06:18:54;24.65;;;13.00;;
60169;SDS011;46042;49.444;6.862;2023-06-22T06:21:22;33.38;;;12.70;;
60169;SDS011;46042;49.444;6.862;2023-06-22T06:23:49;23.65;;;13.85;;
60169;SDS011;46042;49.444;6.862;2023-06-22T06:26:15;27.17;;;14.10;;
60169;SDS011;46042;49.444;6.862;2023-06-22T06:28:43;22.17;;;12.50;;
60169;SDS011;46042;49.444;6.862;2023-06-22T06:31:10;25.00;;;12.65;;
60169;SDS011;46042;49.444;6.862;2023-06-22T06:33:38;18.33;;;12.23;;
60169;SDS011;46042;49.444;6.862;2023-06-22T06:36:05;21.10;;;12.30;;
60169;SDS011;46042;49.444;6.862;2023-06-22T06:38:34;29.33;;;13.35;;
60169;SDS011;46042;49.444;6.862;2023-06-22T06:41:01;24.65;;;13.23;;
60169;SDS011;46042;49.444;6.862;2023-06-22T06:43:28;22.48;;;12.45;;
60169;SDS011;46042;49.444;6.862;2023-06-22T06:45:54;20.83;;;11.85;;
60169;SDS011;46042;49.444;6.862;2023-06-22T06:48:21;19.73;;;12.13;;
60169;SDS011;46042;49.444;6.862;2023-06-22T06:50:48;24.63;;;12.38;;
60169;SDS011;46042;49.444;6.862;2023-06-22T06:53:15;22.27;;;12.57;;
60169;SDS011;46042;49.444;6.862;2023-06-22T06:55:42;21.00;;;12.07;;
60169;SDS011;46042;49.444;6.862;2023-06-22T06:58:12;18.00;;;11.50;;
60169;SDS011;46042;49.444;6.862;2023-06-22T07:00:39;19.65;;;12.45;;
60169;SDS011;46042;49.444;6.862;2023-06-22T07:03:06;19.90;;;11.85;;
60169;SDS011;46042;49.444;6.862;2023-06-22T07:05:33;30.50;;;13.18;;
60169;SDS011;46042;49.444;6.862;2023-06-22T07:08:00;28.65;;;12.48;;
60169;SDS011;46042;49.444;6.862;2023-06-22T07:10:27;24.80;;;12.55;;
60169;SDS011;46042;49.444;6.862;2023-06-22T07:12:55;22.13;;;11.73;;
60169;SDS011;46042;49.444;6.862;2023-06-22T07:15:23;26.25;;;12.45;;
60169;SDS011;46042;49.444;6.862;2023-06-22T07:17:51;31.55;;;11.82;;
60169;SDS011;46042;49.444;6.862;2023-06-22T07:20:18;20.70;;;11.00;;
60169;SDS011;46042;49.444;6.862;2023-06-22T07:22:46;20.40;;;12.07;;
60169;SDS011;46042;49.444;6.862;2023-06-22T07:25:16;18.65;;;11.48;;
60169;SDS011;46042;49.444;6.862;2023-06-22T07:27:56;21.52;;;11.25;;
60169;SDS011;46042;49.444;6.862;2023-06-22T07:30:25;22.27;;;10.75;;
60169;SDS011;46042;49.444;6.862;2023-06-22T07:32:53;18.77;;;11.70;;
60169;SDS011;46042;49.444;6.862;2023-06-22T07:35:20;20.25;;;10.80;;
60169;SDS011;46042;49.444;6.862;2023-06-22T07:37:47;21.35;;;11.48;;
60169;SDS011;46042;49.444;6.862;2023-06-22T07:40:14;17.45;;;11.30;;
60169;SDS011;46042;49.444;6.862;2023-06-22T07:42:41;23.85;;;10.75;;
60169;SDS011;46042;49.444;6.862;2023-06-22T07:45:08;21.20;;;11.32;;
60169;SDS011;46042;49.444;6.862;2023-06-22T07:47:35;15.52;;;10.90;;
60169;SDS011;46042;49.444;6.862;2023-06-22T07:50:06;19.85;;;11.18;;
60169;SDS011;46042;49.444;6.862;2023-06-22T07:52:34;18.55;;;10.68;;
60169;SDS011;46042;49.444;6.862;2023-06-22T07:55:00;19.20;;;10.82;;
60169;SDS011;46042;49.444;6.862;2023-06-22T07:57:28;20.92;;;12.13;;
60169;SDS011;46042;49.444;6.862;2023-06-22T08:00:04;15.85;;;10.73;;
60169;SDS011;46042;49.444;6.862;2023-06-22T08:02:41;23.20;;;10.82;;
60169;SDS011;46042;49.444;6.862;2023-06-22T08:05:09;21.23;;;10.52;;
60169;SDS011;46042;49.444;6.862;2023-06-22T08:07:47;16.85;;;9.73;;
60169;SDS011;46042;49.444;6.862;2023-06-22T08:10:15;19.45;;;11.00;;
60169;SDS011;46042;49.444;6.862;2023-06-22T08:12:45;16.87;;;11.73;;
60169;SDS011;46042;49.444;6.862;2023-06-22T08:15:12;20.33;;;11.50;;
60169;SDS011;46042;49.444;6.862;2023-06-22T08:17:40;17.73;;;10.50;;
60169;SDS011;46042;49.444;6.862;2023-06-22T08:20:07;16.65;;;10.63;;
60169;SDS011;46042;49.444;6.862;2023-06-22T08:22:41;25.38;;;12.10;;
60169;SDS011;46042;49.444;6.862;2023-06-22T08:25:09;21.15;;;10.65;;
60169;SDS011;46042;49.444;6.862;2023-06-22T08:27:36;18.80;;;10.48;;
60169;SDS011;46042;49.444;6.862;2023-06-22T08:30:03;21.00;;;10.85;;
60169;SDS011;46042;49.444;6.862;2023-06-22T08:32:31;21.10;;;11.65;;
60169;SDS011;46042;49.444;6.862;2023-06-22T08:34:59;21.85;;;10.52;;
60169;SDS011;46042;49.444;6.862;2023-06-22T08:37:26;21.02;;;10.85;;
60169;SDS011;46042;49.444;6.862;2023-06-22T08:39:58;22.08;;;11.70;;
60169;SDS011;46042;49.444;6.862;2023-06-22T08:42:25;26.60;;;11.65;;
60169;SDS011;46042;49.444;6.862;2023-06-22T08:44:54;20.65;;;11.43;;
60169;SDS011;46042;49.444;6.862;2023-06-22T08:47:21;22.67;;;11.27;;
60169;SDS011;46042;49.444;6.862;2023-06-22T08:49:49;19.52;;;10.77;;
60169;SDS011;46042;49.444;6.862;2023-06-22T08:52:17;25.13;;;13.13;;
60169;SDS011;46042;49.444;6.862;2023-06-22T08:54:45;19.67;;;11.57;;
60169;SDS011;46042;49.444;6.862;2023-06-22T08:57:14;19.35;;;11.55;;
60169;SDS011;46042;49.444;6.862;2023-06-22T08:59:41;18.67;;;11.00;;
60169;SDS011;46042;49.444;6.862;2023-06-22T09:02:08;18.13;;;10.93;;
60169;SDS011;46042;49.444;6.862;2023-06-22T09:04:35;23.25;;;11.82;;
60169;SDS011;46042;49.444;6.862;2023-06-22T09:07:02;21.08;;;11.13;;
60169;SDS011;46042;49.444;6.862;2023-06-22T09:09:31;18.08;;;11.73;;
60169;SDS011;46042;49.444;6.862;2023-06-22T09:11:58;22.08;;;11.15;;
60169;SDS011;46042;49.444;6.862;2023-06-22T09:14:25;22.90;;;11.15;;
60169;SDS011;46042;49.444;6.862;2023-06-22T09:16:54;20.08;;;10.60;;
60169;SDS011;46042;49.444;6.862;2023-06-22T09:19:20;19.67;;;10.25;;
60169;SDS011;46042;49.444;6.862;2023-06-22T09:21:47;20.15;;;11.30;;
60169;SDS011;46042;49.444;6.862;2023-06-22T09:24:14;19.70;;;11.23;;
60169;SDS011;46042;49.444;6.862;2023-06-22T09:26:40;19.05;;;11.63;;
60169;SDS011;46042;49.444;6.862;2023-06-22T09:29:07;24.50;;;10.80;;
60169;SDS011;46042;49.444;6.862;2023-06-22T09:31:34;20.52;;;10.98;;
60169;SDS011;46042;49.444;6.862;2023-06-22T09:34:01;21.90;;;12.18;;
60169;SDS011;46042;49.444;6.862;2023-06-22T09:36:27;22.85;;;12.23;;
60169;SDS011;46042;49.444;6.862;2023-06-22T09:38:55;18.75;;;11.57;;
60169;SDS011;46042;49.444;6.862;2023-06-22T09:41:25;25.58;;;13.05;;
60169;SDS011;46042;49.444;6.862;2023-06-22T09:43:51;21.52;;;13.30;;
60169;SDS011;46042;49.444;6.862;2023-06-22T09:46:22;19.90;;;11.70;;
60169;SDS011;46042;49.444;6.862;2023-06-22T09:48:51;19.42;;;11.77;;
60169;SDS011;46042;49.444;6.862;2023-06-22T09:51:18;21.05;;;12.10;;
60169;SDS011;46042;49.444;6.862;2023-06-22T09:53:47;24.02;;;12.98;;
60169;SDS011;46042;49.444;6.862;2023-06-22T09:56:14;21.30;;;12.35;;
60169;SDS011;46042;49.444;6.862;2023-06-22T09:58:44;24.52;;;12.63;;
60169;SDS011;46042;49.444;6.862;2023-06-22T10:01:13;23.58;;;11.13;;
60169;SDS011;46042;49.444;6.862;2023-06-22T10:03:43;21.77;;;11.23;;
60169;SDS011;46042;49.444;6.862;2023-06-22T10:06:10;26.98;;;12.68;;
60169;SDS011;46042;49.444;6.862;2023-06-22T10:08:42;25.20;;;14.50;;
60169;SDS011;46042;49.444;6.862;2023-06-22T10:11:09;22.25;;;12.20;;
60169;SDS011;46042;49.444;6.862;2023-06-22T10:13:38;20.67;;;11.48;;
60169;SDS011;46042;49.444;6.862;2023-06-22T10:16:04;17.60;;;11.90;;
60169;SDS011;46042;49.444;6.862;2023-06-22T10:18:31;21.40;;;12.25;;
60169;SDS011;46042;49.444;6.862;2023-06-22T10:20:58;25.48;;;12.20;;
60169;SDS011;46042;49.444;6.862;2023-06-22T10:23:24;24.02;;;11.95;;
60169;SDS011;46042;49.444;6.862;2023-06-22T10:25:51;23.08;;;11.40;;
60169;SDS011;46042;49.444;6.862;2023-06-22T10:28:18;19.52;;;12.32;;
60169;SDS011;46042;49.444;6.862;2023-06-22T10:30:45;20.45;;;11.73;;
60169;SDS011;46042;49.444;6.862;2023-06-22T10:33:12;20.85;;;11.30;;
60169;SDS011;46042;49.444;6.862;2023-06-22T10:35:39;22.45;;;11.88;;
60169;SDS011;46042;49.444;6.862;2023-06-22T10:38:08;22.30;;;11.63;;
60169;SDS011;46042;49.444;6.862;2023-06-22T10:40:35;18.00;;;11.07;;
60169;SDS011;46042;49.444;6.862;2023-06-22T10:43:02;20.85;;;13.02;;
60169;SDS011;46042;49.444;6.862;2023-06-22T10:45:28;24.48;;;11.23;;
60169;SDS011;46042;49.444;6.862;2023-06-22T10:47:56;20.20;;;11.48;;
60169;SDS011;46042;49.444;6.862;2023-06-22T10:50:25;19.58;;;11.30;;
60169;SDS011;46042;49.444;6.862;2023-06-22T10:52:52;26.60;;;11.27;;
60169;SDS011;46042;49.444;6.862;2023-06-22T10:55:21;20.30;;;12.80;;
60169;SDS011;46042;49.444;6.862;2023-06-22T10:57:48;19.75;;;11.73;;
60169;SDS011;46042;49.444;6.862;2023-06-22T11:00:16;19.70;;;11.55;;
60169;SDS011;46042;49.444;6.862;2023-06-22T11:02:43;22.52;;;10.88;;
60169;SDS011;46042;49.444;6.862;2023-06-22T11:05:10;21.25;;;11.20;;
60169;SDS011;46042;49.444;6.862;2023-06-22T11:07:37;22.83;;;11.73;;
60169;SDS011;46042;49.444;6.862;2023-06-22T11:10:07;20.48;;;11.82;;
60169;SDS011;46042;49.444;6.862;2023-06-22T11:12:34;28.58;;;11.43;;
60169;SDS011;46042;49.444;6.862;2023-06-22T11:15:01;23.70;;;10.45;;
60169;SDS011;46042;49.444;6.862;2023-06-22T11:17:29;23.80;;;11.30;;
60169;SDS011;46042;49.444;6.862;2023-06-22T11:19:55;28.13;;;10.85;;
60169;SDS011;46042;49.444;6.862;2023-06-22T11:22:22;25.27;;;10.63;;
60169;SDS011;46042;49.444;6.862;2023-06-22T11:24:49;21.45;;;10.88;;
60169;SDS011;46042;49.444;6.862;2023-06-22T11:27:15;19.77;;;10.38;;
60169;SDS011;46042;49.444;6.862;2023-06-22T11:29:43;23.25;;;10.80;;
60169;SDS011;46042;49.444;6.862;2023-06-22T11:32:10;23.15;;;10.80;;
60169;SDS011;46042;49.444;6.862;2023-06-22T11:34:39;17.88;;;10.13;;
60169;SDS011;46042;49.444;6.862;2023-06-22T11:37:06;50.05;;;12.85;;
60169;SDS011;46042;49.444;6.862;2023-06-22T11:39:33;22.52;;;10.25;;
60169;SDS011;46042;49.444;6.862;2023-06-22T11:42:12;17.58;;;9.75;;
60169;SDS011;46042;49.444;6.862;2023-06-22T11:44:41;26.40;;;10.43;;
60169;SDS011;46042;49.444;6.862;2023-06-22T11:47:09;21.40;;;10.82;;
60169;SDS011;46042;49.444;6.862;2023-06-22T11:49:36;34.08;;;10.90;;
60169;SDS011;46042;49.444;6.862;2023-06-22T11:52:02;22.95;;;10.23;;
60169;SDS011;46042;49.444;6.862;2023-06-22T11:54:29;31.48;;;10.18;;
60169;SDS011;46042;49.444;6.862;2023-06-22T11:56:56;22.13;;;9.95;;
60169;SDS011;46042;49.444;6.862;2023-06-22T11:59:23;20.70;;;10.20;;
60169;SDS011;46042;49.444;6.862;2023-06-22T12:01:50;29.67;;;10.25;;
60169;SDS011;46042;49.444;6.862;2023-06-22T12:04:18;28.00;;;9.88;;
60169;SDS011;46042;49.444;6.862;2023-06-22T12:06:45;22.02;;;9.57;;
60169;SDS011;46042;49.444;6.862;2023-06-22T12:09:12;29.38;;;9.05;;
60169;SDS011;46042;49.444;6.862;2023-06-22T12:11:40;37.45;;;9.77;;
60169;SDS011;46042;49.444;6.862;2023-06-22T12:14:07;21.88;;;9.18;;
60169;SDS011;46042;49.444;6.862;2023-06-22T12:16:34;29.90;;;9.63;;
60169;SDS011;46042;49.444;6.862;2023-06-22T12:19:01;20.98;;;9.30;;
60169;SDS011;46042;49.444;6.862;2023-06-22T12:21:28;19.95;;;8.15;;
60169;SDS011;46042;49.444;6.862;2023-06-22T12:23:56;18.08;;;8.55;;
60169;SDS011;46042;49.444;6.862;2023-06-22T12:26:23;30.13;;;8.95;;
60169;SDS011;46042;49.444;6.862;2023-06-22T12:28:50;27.23;;;9.98;;
60169;SDS011;46042;49.444;6.862;2023-06-22T12:31:16;23.75;;;9.85;;
60169;SDS011;46042;49.444;6.862;2023-06-22T12:33:43;26.65;;;9.50;;
60169;SDS011;46042;49.444;6.862;2023-06-22T12:36:11;30.90;;;9.93;;
60169;SDS011;46042;49.444;6.862;2023-06-22T12:38:38;20.25;;;8.85;;
60169;SDS011;46042;49.444;6.862;2023-06-22T12:41:04;34.13;;;9.35;;
60169;SDS011;46042;49.444;6.862;2023-06-22T12:43:31;32.83;;;10.10;;
60169;SDS011;46042;49.444;6.862;2023-06-22T12:45:58;26.30;;;9.68;;
60169;SDS011;46042;49.444;6.862;2023-06-22T12:48:25;26.55;;;9.35;;
60169;SDS011;46042;49.444;6.862;2023-06-22T12:50:54;35.85;;;8.65;;
60169;SDS011;46042;49.444;6.862;2023-06-22T12:53:21;21.38;;;8.40;;
60169;SDS011;46042;49.444;6.862;2023-06-22T12:55:50;35.78;;;9.27;;
60169;SDS011;46042;49.444;6.862;2023-06-22T12:58:16;27.52;;;8.98;;
60169;SDS011;46042;49.444;6.862;2023-06-22T13:00:43;24.17;;;7.75;;
60169;SDS011;46042;49.444;6.862;2023-06-22T13:03:10;29.08;;;8.65;;
60169;SDS011;46042;49.444;6.862;2023-06-22T13:05:37;35.97;;;8.60;;
60169;SDS011;46042;49.444;6.862;2023-06-22T13:08:06;24.13;;;7.65;;
60169;SDS011;46042;49.444;6.862;2023-06-22T13:10:38;23.88;;;8.43;;
60169;SDS011;46042;49.444;6.862;2023-06-22T13:13:04;32.03;;;7.95;;
60169;SDS011;46042;49.444;6.862;2023-06-22T13:15:32;25.92;;;8.15;;
60169;SDS011;46042;49.444;6.862;2023-06-22T13:17:59;26.75;;;8.35;;
60169;SDS011;46042;49.444;6.862;2023-06-22T13:20:26;30.55;;;7.20;;
60169;SDS011;46042;49.444;6.862;2023-06-22T13:22:55;20.95;;;7.10;;
60169;SDS011;46042;49.444;6.862;2023-06-22T13:25:23;27.27;;;7.55;;
60169;SDS011;46042;49.444;6.862;2023-06-22T13:27:58;58.42;;;8.60;;
60169;SDS011;46042;49.444;6.862;2023-06-22T13:30:25;29.98;;;7.07;;
60169;SDS011;46042;49.444;6.862;2023-06-22T13:32:51;41.10;;;5.95;;
60169;SDS011;46042;49.444;6.862;2023-06-22T13:35:18;15.50;;;5.15;;
60169;SDS011;46042;49.444;6.862;2023-06-22T13:37:45;22.25;;;5.07;;
60169;SDS011;46042;49.444;6.862;2023-06-22T13:40:12;14.02;;;4.75;;
60169;SDS011;46042;49.444;6.862;2023-06-22T13:42:41;18.60;;;4.72;;
60169;SDS011;46042;49.444;6.862;2023-06-22T13:45:08;16.35;;;4.72;;
60169;SDS011;46042;49.444;6.862;2023-06-22T13:47:35;12.73;;;5.15;;
60169;SDS011;46042;49.444;6.862;2023-06-22T13:50:01;24.35;;;5.30;;
60169;SDS011;46042;49.444;6.862;2023-06-22T13:52:28;13.50;;;5.60;;
60169;SDS011;46042;49.444;6.862;2023-06-22T13:54:57;17.30;;;6.22;;
60169;SDS011;46042;49.444;6.862;2023-06-22T13:57:24;15.82;;;6.20;;
60169;SDS011;46042;49.444;6.862;2023-06-22T13:59:51;21.25;;;7.80;;
60169;SDS011;46042;49.444;6.862;2023-06-22T14:02:18;21.13;;;6.38;;
60169;SDS011;46042;49.444;6.862;2023-06-22T14:04:44;25.08;;;6.53;;
60169;SDS011;46042;49.444;6.862;2023-06-22T14:07:11;14.10;;;5.10;;
60169;SDS011;46042;49.444;6.862;2023-06-22T14:09:39;27.23;;;5.63;;
60169;SDS011;46042;49.444;6.862;2023-06-22T14:12:06;20.92;;;5.55;;
60169;SDS011;46042;49.444;6.862;2023-06-22T14:14:35;22.27;;;5.20;;
60169;SDS011;46042;49.444;6.862;2023-06-22T14:17:04;20.48;;;4.68;;
60169;SDS011;46042;49.444;6.862;2023-06-22T14:19:32;24.60;;;5.82;;
60169;SDS011;46042;49.444;6.862;2023-06-22T14:21:58;35.00;;;5.97;;
60169;SDS011;46042;49.444;6.862;2023-06-22T14:24:25;28.00;;;5.68;;
60169;SDS011;46042;49.444;6.862;2023-06-22T14:26:55;16.42;;;5.50;;
60169;SDS011;46042;49.444;6.862;2023-06-22T14:29:22;16.20;;;5.65;;
60169;SDS011;46042;49.444;6.862;2023-06-22T14:31:49;16.98;;;5.78;;
60169;SDS011;46042;49.444;6.862;2023-06-22T14:34:16;23.92;;;6.40;;
60169;SDS011;46042;49.444;6.862;2023-06-22T14:36:42;20.50;;;5.28;;
60169;SDS011;46042;49.444;6.862;2023-06-22T14:39:09;17.85;;;5.18;;
60169;SDS011;46042;49.444;6.862;2023-06-22T14:41:36;18.13;;;5.32;;